createdAt,value
2019-02-02T00:02:26.318Z,76.71
2019-02-02T00:06:30.676Z,77.00
2019-02-02T00:10:35.063Z,76.99
2019-02-02T00:14:39.536Z,77.17
2019-02-02T00:18:43.883Z,76.96
2019-02-02T00:22:48.296Z,77.14
2019-02-02T00:26:52.600Z,77.30
2019-02-02T00:30:56.870Z,77.27
2019-02-02T00:35:01.293Z,77.31
2019-02-02T00:39:09.968Z,77.28
2019-02-02T00:43:14.338Z,77.33
2019-02-02T00:47:18.627Z,77.25
2019-02-02T00:51:22.952Z,77.24
2019-02-02T00:55:27.468Z,77.29
2019-02-02T00:59:31.767Z,77.29
2019-02-02T01:03:35.996Z,77.26
2019-02-02T01:07:40.402Z,77.20
2019-02-02T01:11:45.044Z,77.24
2019-02-02T01:15:49.368Z,77.32
2019-02-02T01:19:53.674Z,77.32
2019-02-02T01:23:57.940Z,77.36
2019-02-02T01:28:05.276Z,77.31
2019-02-02T01:32:08.312Z,77.12
2019-02-02T01:36:12.593Z,77.16
2019-02-02T01:40:18.816Z,77.08
2019-02-02T01:44:23.113Z,77.08
2019-02-02T01:48:27.365Z,77.19
2019-02-02T01:52:31.695Z,77.32
2019-02-02T01:56:36.028Z,77.43
2019-02-02T02:00:40.290Z,77.67
2019-02-02T02:04:44.561Z,77.71
2019-02-02T02:08:48.884Z,77.63
2019-02-02T02:12:53.258Z,77.55
2019-02-02T02:16:57.508Z,77.49
2019-02-02T02:21:01.802Z,77.25
2019-02-02T02:25:08.025Z,76.94
2019-02-02T02:29:12.594Z,76.52
2019-02-02T02:33:16.910Z,76.68
2019-02-02T02:37:21.182Z,76.85
2019-02-02T02:41:25.477Z,76.97
2019-02-02T02:45:29.765Z,77.29
2019-02-02T02:49:34.034Z,77.84
2019-02-02T02:53:38.322Z,78.01
2019-02-02T02:57:42.706Z,78.86
2019-02-02T03:01:47.032Z,78.94
2019-02-02T03:05:51.304Z,78.53
2019-02-02T03:09:55.682Z,78.01
2019-02-02T03:14:00.010Z,77.43
2019-02-02T03:18:04.356Z,76.70
2019-02-02T03:22:08.753Z,75.98
2019-02-02T03:26:13.042Z,75.55
2019-02-02T03:30:21.054Z,74.98
2019-02-02T03:34:25.297Z,74.61
2019-02-02T03:38:29.570Z,74.35
2019-02-02T03:42:33.816Z,74.09
2019-02-02T03:46:38.133Z,73.91
2019-02-02T03:50:42.472Z,73.90
2019-02-02T03:54:46.820Z,73.62
2019-02-02T03:58:51.102Z,73.37
2019-02-02T04:02:55.432Z,73.26
2019-02-02T04:06:59.728Z,73.06
2019-02-02T04:11:04.109Z,72.78
2019-02-02T04:15:08.795Z,72.56
2019-02-02T04:19:13.098Z,72.38
2019-02-02T04:23:17.399Z,72.26
2019-02-02T04:27:23.751Z,71.87
2019-02-02T04:31:28.097Z,71.84
2019-02-02T04:35:32.361Z,71.36
2019-02-02T04:39:36.614Z,71.29
2019-02-02T04:43:40.886Z,71.31
2019-02-02T04:47:45.111Z,71.24
2019-02-02T04:51:49.368Z,71.27
2019-02-02T04:55:53.611Z,71.26
2019-02-02T04:59:57.895Z,71.49
2019-02-02T05:04:02.123Z,71.46
2019-02-02T05:08:06.378Z,71.51
2019-02-02T05:12:11.537Z,71.21
2019-02-02T05:16:15.769Z,71.22
2019-02-02T05:20:20.100Z,71.22
2019-02-02T05:24:24.358Z,70.98
2019-02-02T05:28:28.915Z,70.98
2019-02-02T05:32:33.207Z,71.06
2019-02-02T05:36:37.456Z,70.67
2019-02-02T05:40:41.734Z,70.68
2019-02-02T05:44:46.007Z,70.69
2019-02-02T05:48:50.303Z,70.34
2019-02-02T05:52:54.534Z,70.49
2019-02-02T05:56:58.791Z,70.53
2019-02-02T06:01:03.080Z,70.32
2019-02-02T06:05:07.453Z,70.20
2019-02-02T06:09:11.790Z,70.02
2019-02-02T06:13:16.015Z,69.87
2019-02-02T06:17:20.405Z,69.96
2019-02-02T06:21:24.671Z,69.89
2019-02-02T06:25:28.947Z,69.95
2019-02-02T06:29:33.231Z,69.68
2019-02-02T06:33:37.496Z,69.88
2019-02-02T06:37:41.798Z,69.56
2019-02-02T06:41:46.029Z,69.33
2019-02-02T06:45:50.328Z,68.69
2019-02-02T06:49:54.614Z,69.08
2019-02-02T06:53:58.878Z,68.89
2019-02-02T06:58:03.931Z,68.67
2019-02-02T07:02:08.356Z,68.64
2019-02-02T07:06:12.612Z,69.03
2019-02-02T07:10:21.734Z,68.92
2019-02-02T07:14:26.095Z,69.30
2019-02-02T07:18:30.415Z,69.06
2019-02-02T07:22:34.948Z,68.57
2019-02-02T07:26:39.324Z,68.70
2019-02-02T07:30:43.575Z,68.78
2019-02-02T07:34:47.881Z,68.55
2019-02-02T07:38:52.137Z,68.51
2019-02-02T07:42:56.625Z,68.15
2019-02-02T07:47:00.931Z,68.05
2019-02-02T07:51:05.479Z,67.89
2019-02-02T07:55:10.884Z,67.58
2019-02-02T07:59:15.212Z,67.54
2019-02-02T08:03:19.799Z,67.31
2019-02-02T08:07:24.103Z,67.37
2019-02-02T08:11:28.386Z,67.39
2019-02-02T08:15:33.277Z,67.45
2019-02-02T08:19:37.551Z,67.61
2019-02-02T08:23:41.827Z,67.58
2019-02-02T08:27:46.058Z,67.63
2019-02-02T08:31:50.434Z,67.76
2019-02-02T08:35:54.737Z,67.83
2019-02-02T08:39:59.044Z,68.03
2019-02-02T08:44:03.369Z,68.23
2019-02-02T08:48:07.707Z,68.00
2019-02-02T08:52:12.001Z,67.98
2019-02-02T08:56:16.259Z,68.17
2019-02-02T09:00:21.016Z,67.97
2019-02-02T09:04:25.407Z,68.07
2019-02-02T09:08:29.654Z,68.12
2019-02-02T09:12:33.921Z,67.78
2019-02-02T09:16:38.209Z,67.65
2019-02-02T09:20:42.506Z,68.03
2019-02-02T09:24:46.792Z,67.88
2019-02-02T09:28:51.181Z,67.16
2019-02-02T09:32:55.553Z,67.16
2019-02-02T09:36:59.840Z,67.64
2019-02-02T09:41:04.321Z,67.21
2019-02-02T09:45:10.235Z,67.57
2019-02-02T09:49:14.534Z,67.31
2019-02-02T09:53:18.851Z,67.46
2019-02-02T09:57:23.325Z,67.18
2019-02-02T10:01:28.201Z,67.20
2019-02-02T10:05:32.697Z,67.11
2019-02-02T10:09:37.080Z,67.17
2019-02-02T10:13:41.788Z,66.95
2019-02-02T10:17:46.149Z,66.87
2019-02-02T10:21:50.553Z,67.02
2019-02-02T10:25:54.851Z,67.07
2019-02-02T10:29:59.130Z,67.08
2019-02-02T10:34:03.536Z,67.04
2019-02-02T10:38:07.974Z,67.06
2019-02-02T10:42:12.514Z,66.94
2019-02-02T10:46:16.823Z,66.97
2019-02-02T10:50:21.672Z,67.03
2019-02-02T10:54:25.978Z,67.03
2019-02-02T10:58:30.275Z,66.98
2019-02-02T11:02:34.629Z,66.71
2019-02-02T11:06:39.064Z,66.06
2019-02-02T11:10:43.454Z,65.94
2019-02-02T11:14:47.829Z,65.60
2019-02-02T11:18:52.187Z,65.57
2019-02-02T11:22:56.572Z,65.35
2019-02-02T11:27:01.123Z,64.84
2019-02-02T11:31:05.611Z,65.08
2019-02-02T11:35:11.519Z,64.59
2019-02-02T11:39:15.823Z,64.56
2019-02-02T11:43:20.183Z,64.17
2019-02-02T11:47:24.515Z,64.07
2019-02-02T11:51:28.775Z,63.92
2019-02-02T11:55:33.053Z,63.25
2019-02-02T11:59:37.405Z,63.56
2019-02-02T12:03:41.676Z,63.35
2019-02-02T12:07:46.245Z,63.56
2019-02-02T12:11:50.550Z,63.67
2019-02-02T12:15:54.983Z,63.31
2019-02-02T12:19:59.477Z,63.39
2019-02-02T12:24:13.282Z,63.47
2019-02-02T12:28:09.788Z,63.20
2019-02-02T12:32:25.904Z,62.80
2019-02-02T12:36:20.518Z,63.25
2019-02-02T12:40:25.359Z,63.05
2019-02-02T12:44:29.655Z,62.99
2019-02-02T12:48:34.080Z,62.97
2019-02-02T12:52:38.506Z,62.00
2019-02-02T12:56:42.810Z,62.33
2019-02-02T13:00:47.084Z,62.22
2019-02-02T13:04:51.325Z,61.95
2019-02-02T13:08:55.657Z,61.28
2019-02-02T13:13:00.046Z,61.66
2019-02-02T13:17:04.395Z,61.30
2019-02-02T13:21:08.682Z,61.18
2019-02-02T13:25:14.856Z,61.08
2019-02-02T13:29:19.175Z,60.74
2019-02-02T13:33:23.470Z,60.70
2019-02-02T13:37:27.839Z,61.16
2019-02-02T13:41:32.154Z,60.79
2019-02-02T13:45:36.468Z,60.54
2019-02-02T13:49:40.734Z,60.40
2019-02-02T13:53:45.062Z,60.50
2019-02-02T13:57:49.329Z,60.66
2019-02-02T14:01:53.741Z,60.60
2019-02-02T14:05:58.052Z,59.99
2019-02-02T14:10:02.781Z,59.67
2019-02-02T14:14:07.084Z,59.85
2019-02-02T14:18:11.471Z,60.19
2019-02-02T14:22:15.801Z,59.85
2019-02-02T14:26:20.111Z,60.22
2019-02-02T14:30:25.627Z,60.44
2019-02-02T14:34:39.932Z,60.39
2019-02-02T14:38:35.963Z,60.57
2019-02-02T14:42:40.405Z,60.73
2019-02-02T14:46:44.710Z,60.69
2019-02-02T14:50:48.995Z,60.61
2019-02-02T14:54:53.276Z,60.83
2019-02-02T14:58:57.605Z,60.58
2019-02-02T15:03:03.718Z,60.97
2019-02-02T15:07:08.306Z,60.92
2019-02-02T15:11:12.577Z,60.94
2019-02-02T15:15:16.885Z,60.92
2019-02-02T15:19:21.148Z,61.09
2019-02-02T15:23:25.474Z,61.06
2019-02-02T15:27:29.802Z,61.09
2019-02-02T15:31:34.990Z,60.92
2019-02-02T15:35:39.276Z,61.28
2019-02-02T15:39:43.553Z,61.46
2019-02-02T15:43:47.874Z,61.44
2019-02-02T15:47:52.210Z,61.46
2019-02-02T15:51:58.763Z,61.42
2019-02-02T15:56:03.010Z,61.54
2019-02-02T16:00:11.216Z,61.56
2019-02-02T16:04:15.484Z,61.66
2019-02-02T16:08:20.127Z,61.66
2019-02-02T16:12:24.403Z,61.80
2019-02-02T16:16:28.846Z,62.09
2019-02-02T16:20:35.537Z,62.46
2019-02-02T16:24:39.875Z,62.87
2019-02-02T16:28:44.305Z,63.08
2019-02-02T16:32:48.670Z,63.25
2019-02-02T16:36:53.041Z,63.30
2019-02-02T16:40:57.310Z,63.38
2019-02-02T16:45:01.574Z,63.50
2019-02-02T16:49:05.842Z,63.39
2019-02-02T16:53:10.102Z,62.99
2019-02-02T16:57:14.462Z,61.09
2019-02-02T17:01:18.737Z,61.26
2019-02-02T17:05:23.087Z,60.95
2019-02-02T17:09:27.396Z,58.19
2019-02-02T17:13:31.643Z,59.80
2019-02-02T17:17:35.893Z,60.04
2019-02-02T17:21:40.474Z,60.45
2019-02-02T17:25:44.859Z,60.64
2019-02-02T17:29:49.217Z,60.66
2019-02-02T17:33:53.684Z,60.65
2019-02-02T17:37:57.952Z,60.64
2019-02-02T17:42:03.937Z,60.37
2019-02-02T17:46:08.218Z,60.45
2019-02-02T17:50:14.893Z,60.59
2019-02-02T17:54:19.272Z,60.92
2019-02-02T17:58:23.585Z,61.04
2019-02-02T18:02:27.886Z,61.10
2019-02-02T18:06:32.199Z,61.07
2019-02-02T18:10:36.497Z,61.00
2019-02-02T18:14:40.812Z,60.91
2019-02-02T18:18:45.076Z,60.88
2019-02-02T18:22:49.434Z,60.86
2019-02-02T18:26:53.751Z,60.83
2019-02-02T18:30:58.063Z,61.04
2019-02-02T18:35:02.463Z,61.46
2019-02-02T18:39:09.164Z,61.54
2019-02-02T18:43:13.459Z,61.87
2019-02-02T18:47:17.715Z,62.09
2019-02-02T18:51:22.071Z,62.21
2019-02-02T18:55:29.132Z,62.21
2019-02-02T18:59:36.623Z,62.39
2019-02-02T19:03:44.062Z,62.25
2019-02-02T19:07:48.791Z,62.49
2019-02-02T19:11:53.156Z,62.77
2019-02-02T19:15:57.417Z,63.00
2019-02-02T19:20:01.663Z,63.03
2019-02-02T19:24:09.117Z,63.16
2019-02-02T19:28:12.364Z,63.24
2019-02-02T19:32:16.683Z,63.49
2019-02-02T19:36:20.981Z,63.45
2019-02-02T19:40:25.352Z,63.66
2019-02-02T19:44:29.658Z,63.78
2019-02-02T19:48:34.046Z,63.68
2019-02-02T19:52:40.490Z,63.76
2019-02-02T19:56:44.696Z,63.71
2019-02-02T20:00:49.049Z,64.20
2019-02-02T20:04:54.706Z,64.53
2019-02-02T20:08:59.027Z,64.67
2019-02-02T20:13:03.275Z,64.70
2019-02-02T20:17:07.624Z,64.71
2019-02-02T20:21:11.928Z,64.64
2019-02-02T20:25:16.294Z,64.60
2019-02-02T20:29:20.520Z,64.67
2019-02-02T20:33:24.881Z,64.81
2019-02-02T20:37:29.159Z,64.96
2019-02-02T20:41:33.485Z,64.99
2019-02-02T20:45:37.774Z,65.02
2019-02-02T20:49:42.052Z,65.18
2019-02-02T20:53:46.716Z,65.08
2019-02-02T20:57:51.132Z,65.17
2019-02-02T21:01:55.448Z,65.40
2019-02-02T21:05:59.736Z,65.83
2019-02-02T21:10:04.013Z,65.99
2019-02-02T21:14:08.407Z,66.41
2019-02-02T21:18:12.718Z,66.83
2019-02-02T21:22:16.992Z,67.05
2019-02-02T21:26:21.246Z,67.93
2019-02-02T21:30:27.850Z,67.67
2019-02-02T21:34:32.133Z,68.07
2019-02-02T21:38:36.404Z,68.35
2019-02-02T21:42:40.899Z,68.50
2019-02-02T21:46:45.274Z,68.72
2019-02-02T21:50:49.467Z,68.76
2019-02-02T21:54:53.818Z,68.73
2019-02-02T21:58:58.593Z,68.91
2019-02-02T22:03:02.940Z,68.87
2019-02-02T22:07:07.264Z,68.88
2019-02-02T22:11:11.827Z,69.02
2019-02-02T22:15:18.641Z,69.17
2019-02-02T22:19:23.725Z,69.23
2019-02-02T22:23:28.067Z,69.39
2019-02-02T22:27:32.342Z,69.60
2019-02-02T22:31:36.978Z,69.65
2019-02-02T22:35:41.259Z,69.60
2019-02-02T22:39:45.480Z,69.63
2019-02-02T22:43:49.777Z,69.62
2019-02-02T22:47:54.419Z,69.83
2019-02-02T22:52:00.007Z,69.89
2019-02-02T22:56:04.648Z,70.11
2019-02-02T23:00:29.995Z,70.16
2019-02-02T23:05:20.809Z,70.24
2019-02-02T23:10:01.919Z,70.29
2019-02-02T23:14:50.303Z,70.37
2019-02-02T23:18:54.672Z,70.41
2019-02-02T23:22:58.995Z,70.46
2019-02-02T23:27:03.300Z,70.49
2019-02-02T23:31:07.603Z,70.47
2019-02-02T23:35:12.392Z,70.40
2019-02-02T23:39:16.682Z,70.48
2019-02-02T23:43:20.971Z,70.40
2019-02-02T23:47:25.232Z,70.56
2019-02-02T23:51:29.492Z,70.55
2019-02-02T23:55:33.801Z,70.76
2019-02-02T23:59:38.111Z,70.87
